Airfield :
LOGIN :

Register | Disclaimer

   EN    FR    IT 

 










Legend :    VFR   Marginal VFR   IFR   Intensive IFR   Very Intensive IFR
Visi :
Ceiling :
>= 8 km
>= 3000ft
5 to 8 km
1000 to 3000 ft
1500m to 5 km
500 to 1000 ft
800 to 1500m
200 to 500 ft
< 800m
< 200 ft
Symbols :   Thunderstorms  Fog  Heavy snow  Heavy precipitations  Wind > 20 kt
SIGMETs :     Misc.  Thunderstorms  Icing  Turbulence  Mountain Waves  Volcanic Ashes







- Airport Elevation : 0 ft


ETEB - Ansbach Army Heliport

CURRENT METAR :
  • 181456Z AUTO 23008KT 9999 FEW085 29/08 A3002 RMK AO2 SLP160 T02920083 57012 $

EXPIRED METARs :
  • 181413Z AUTO 23012G17KT 9999 CLR 30/09 A3003 RMK AO2 WSHFT 11 SLP161 $
  • 181356Z AUTO 26006KT 9999 FEW080 29/09 A3003 RMK AO2 SLP161 T02900086 $
  • 181256Z AUTO 19008KT 9999 CLR 29/10 A3004 RMK AO2 SLP165 T02880095 $

TAF TAF ETEB
Valid from the 18 at 13:00 until the 19 at 19:00 UTC


181303Z 1813/1919 VRB06KT 9999 SKC QNH3004INS
BECMG 1903/1904 VRB06KT 9999 SCT045 QNH3009INS TX29/1815Z TN16/1906Z
No reported NOTAMs for that airfield.



MET'MAP, your aeronautical weather chart ! - Copyright ORBIFLY December 2007 - Disclaimer

ORBIFLY MET'MAP TEAM :

Programming & Development : Alexandra Zaïnal
Concept & Development : Baudouin d'Aumeries
Co-Development & Prog : Marc-Olivier Méhu
Technical & hardware support : Manuel Goepfert

Contact : metmap@orbifly.com




SOURCES & CREDITS :

   NOAA